Thursday, May 24, 2018, 7:33 PM GMT
Back to Local

CXKT, Kentville , N. S.

Location: , , Canada Lat: 45.067
Local Time: 7:33 PM GMT (19:33 GMT) Lon: -64.483
Time Zone: GMT Elev: 160 ft

Show me the last for .
Show Coded

Time T Td Feel RH Dir Speed Gust Alt SLP Vis Weather Sky Remarks
2018-05-24 19:00 54 33 - 44 300° 6 - - 30.05 0 None
2018-05-24 18:00 53 35 - 50 320° 7 - - 30.06 0 None
2018-05-24 17:00 49 31 47 50 290° 5 - - 30.07 0 None
2018-05-24 16:00 50 33 - 52 330° 6 - - 30.09 0 None
2018-05-24 15:00 49 35 46 59 20° 6 - - 30.10 0 None
2018-05-24 14:00 47 34 44 60 360° 6 - - 30.10 0 None
2018-05-24 13:00 44 37 40 75 330° 8 - - 30.10 0 None
2018-05-24 12:00 42 36 38 79 360° 7 - - 30.09 0 None
2018-05-24 11:00 38 36 32 92 350° 8 - - 30.07 0 1-hr Precip Total: 0.01"
2018-05-24 10:00 38 35 34 89 320° 5 - - 30.04 0 1-hr Precip Total: 0.03"
2018-05-24 09:00 31 29 - 91 310° 1 - - 30.01 0 None
2018-05-24 08:00 34 31 - 87 350° 2 - - 29.98 0 None
2018-05-24 07:00 35 33 - 92 10° 2 - - 29.97 0 None
2018-05-24 06:00 37 33 32 85 350° 7 - - 29.97 0 None
2018-05-24 05:00 38 34 35 85 360° 5 - - 29.97 0 None
2018-05-24 04:00 39 35 33 86 360° 8 - - 29.98 0 None
2018-05-24 03:00 39 37 30 89 330° 9 17 - 29.98 0 None
2018-05-24 02:00 40 37 34 89 340° 9 - - 29.98 0 None
2018-05-24 01:00 41 38 36 88 350° 8 - - 29.96 0 Peak wind: 19 mph (17 kts) from 0° at 33 min
2018-05-24 00:00 43 39 38 87 360° 8 - - 29.92 0 Peak wind: 19 mph (17 kts) from 350° at 05 min
2018-05-23 23:00 44 40 35 85 340° 13 21 - 29.89 0 Peak wind: 20 mph (18 kts) from 0° at 55 min
Pressure rising rapidly
2018-05-23 22:00 48 43 45 82 350° 7 - - 29.82 0 None
2018-05-23 21:00 47 38 - 72 40° 2 - - 29.81 0 Peak wind: 29 mph (26 kts) from 350° at 11 min
2018-05-23 20:00 54 43 - 66 300° 16 24 - 29.79 0 Peak wind: 26 mph (23 kts) from 270° at 44 min

Support USWX by starting your Amazon purchase here.